Terminal Aerodrome Forecast
Issued by NWS Shreveport, LA

Home | Current Version | Previous Version | Text Only | Print | Product List | Glossary On
Versions: 1 2 3 4 5 6 7 8 9 10 11 12 13 14 15 16 17
000
FTUS44 KSHV 282300
TAFTXK
TAF
KTXK 282320Z 2900/2924 VRB04KT P6SM SCT110 SCT250
     FM291400 19008KT P6SM SCT060
     FM291800 19007KT P6SM VCTS BKN050CB=

USA.gov is the U.S. government's official web portal to all federal, state and local government web resources and services.